Time;durP1;ratioP1;P1;durP2;ratioP2;P2;SDS_P1;SDS_P2;PMS_P1;PMS_P2;Temp;Humidity;BMP_temperature;BMP_pressure;BME280_temperature;BME280_humidity;BME280_pressure;Samples;Min_cycle;Max_cycle;Signal;HPM_P1;HPM_P2
2023/08/19 00:01:28;;;;;;;4.30;2.50;;;19.90;99.90;;;;;;5014506;28;20200;-82
2023/08/19 00:03:54;;;;;;;5.72;2.47;;;19.90;99.90;;;;;;4996973;28;20704;-82
2023/08/19 00:06:36;;;;;;;3.20;2.30;;;19.90;99.90;;;;;;4996577;28;20175;-81
2023/08/19 00:09:04;;;;;;;3.72;2.33;;;20.00;99.90;;;;;;4996539;28;20206;-81
2023/08/19 00:11:31;;;;;;;4.07;2.45;;;20.00;99.90;;;;;;5013806;28;20664;-81
2023/08/19 00:13:57;;;;;;;3.85;2.30;;;19.90;99.90;;;;;;5014145;28;20234;-81
2023/08/19 00:16:22;;;;;;;2.85;2.55;;;19.90;99.90;;;;;;4997275;28;20261;-81
2023/08/19 00:18:49;;;;;;;3.38;2.33;;;19.90;99.90;;;;;;4996617;28;20199;-82
2023/08/19 00:21:14;;;;;;;3.97;2.20;;;19.80;99.90;;;;;;4996007;28;20172;-82
2023/08/19 00:23:40;;;;;;;3.20;2.58;;;19.80;99.90;;;;;;5014117;28;20729;-82
2023/08/19 00:26:05;;;;;;;5.53;2.40;;;19.70;99.90;;;;;;5014006;28;20179;-81
2023/08/19 00:28:31;;;;;;;4.13;2.25;;;19.50;99.90;;;;;;5013974;28;20277;-82
2023/08/19 00:30:56;;;;;;;2.90;2.60;;;19.30;99.90;;;;;;4995911;28;20175;-82
2023/08/19 00:33:24;;;;;;;5.47;2.70;;;19.30;99.90;;;;;;5013957;28;20238;-82
2023/08/19 00:35:51;;;;;;;2.88;2.55;;;19.30;99.90;;;;;;5013638;28;20771;-82
2023/08/19 00:38:17;;;;;;;4.35;2.50;;;19.30;99.90;;;;;;5014007;28;20201;-82
2023/08/19 00:40:43;;;;;;;3.53;2.50;;;19.30;99.90;;;;;;4995310;28;20171;-82
2023/08/19 00:43:08;;;;;;;3.95;2.55;;;19.20;99.90;;;;;;4996701;28;20204;-82
2023/08/19 00:45:37;;;;;;;3.45;2.38;;;19.30;99.90;;;;;;4996283;28;20182;-82
2023/08/19 00:48:04;;;;;;;2.85;2.55;;;19.40;99.90;;;;;;4995959;28;20264;-82
2023/08/19 00:50:30;;;;;;;2.92;2.50;;;19.50;99.90;;;;;;4995639;28;20175;-82
2023/08/19 00:52:55;;;;;;;3.95;2.60;;;19.50;99.90;;;;;;5013092;28;20177;-82
2023/08/19 00:55:21;;;;;;;3.53;2.40;;;19.60;99.90;;;;;;4995693;28;20243;-82
2023/08/19 00:57:48;;;;;;;4.43;2.80;;;19.60;99.90;;;;;;5012671;28;20167;-81
2023/08/19 01:00:14;;;;;;;4.57;2.83;;;19.40;99.90;;;;;;5012602;28;20225;-82
2023/08/19 01:02:41;;;;;;;3.60;2.70;;;19.50;99.90;;;;;;5011990;28;20250;-82
2023/08/19 01:05:08;;;;;;;3.65;2.75;;;19.50;99.90;;;;;;5012243;28;20183;-82
2023/08/19 01:07:54;;;;;;;3.38;2.95;;;19.60;99.90;;;;;;5012129;28;20661;-81
2023/08/19 01:10:36;;;;;;;4.85;3.20;;;19.50;99.90;;;;;;5011794;28;20202;-82
2023/08/19 01:13:30;;;;;;;3.55;2.80;;;19.30;99.90;;;;;;5012247;28;20167;-82
2023/08/19 01:16:01;;;;;;;3.03;2.53;;;19.30;99.90;;;;;;5011917;28;20244;-82
2023/08/19 01:18:27;;;;;;;4.10;2.70;;;19.20;99.90;;;;;;5013355;28;20191;-81
2023/08/19 01:20:54;;;;;;;4.88;2.47;;;19.20;99.90;;;;;;5011336;28;20168;-82
2023/08/19 01:23:42;;;;;;;3.42;2.45;;;19.00;99.90;;;;;;5012129;28;20650;-82
2023/08/19 01:26:08;;;;;;;3.55;3.22;;;19.00;99.90;;;;;;5011600;28;20536;-82
2023/08/19 01:28:34;;;;;;;4.20;2.70;;;18.90;99.90;;;;;;5011818;28;20195;-81
2023/08/19 01:31:00;;;;;;;5.82;2.60;;;18.90;99.90;;;;;;5012851;28;20201;-81
2023/08/19 01:33:25;;;;;;;3.63;3.20;;;18.80;99.90;;;;;;5012657;28;20286;-82
2023/08/19 01:36:12;;;;;;;3.22;2.72;;;18.80;99.90;;;;;;5011350;28;20235;-82
2023/08/19 01:38:50;;;;;;;2.72;2.53;;;18.70;99.90;;;;;;5012990;28;20183;-81
2023/08/19 01:41:18;;;;;;;3.25;2.83;;;18.80;99.90;;;;;;5011005;28;20167;-81
2023/08/19 01:43:44;;;;;;;3.25;2.95;;;18.90;99.90;;;;;;5011818;28;20252;-81
2023/08/19 01:46:11;;;;;;;4.28;3.20;;;19.10;99.90;;;;;;5011972;28;20179;-81
2023/08/19 01:48:36;;;;;;;3.30;2.97;;;19.00;99.90;;;;;;5012902;28;20203;-80
2023/08/19 01:51:02;;;;;;;2.92;2.70;;;19.00;99.90;;;;;;5012419;28;20178;-82
2023/08/19 01:53:28;;;;;;;3.50;3.20;;;19.00;99.90;;;;;;5011315;28;20195;-82
2023/08/19 01:55:53;;;;;;;4.63;2.83;;;19.10;99.90;;;;;;5011672;28;20646;-81
2023/08/19 01:58:19;;;;;;;3.75;2.75;;;19.10;99.90;;;;;;5010879;28;20195;-82
2023/08/19 02:00:45;;;;;;;3.03;2.58;;;19.10;99.90;;;;;;5012030;28;20163;-81
2023/08/19 02:03:10;;;;;;;4.60;2.95;;;18.90;99.90;;;;;;5012597;28;20175;-81
2023/08/19 02:05:36;;;;;;;6.05;3.03;;;18.90;99.90;;;;;;5011996;28;20176;-82
2023/08/19 02:08:02;;;;;;;4.90;2.92;;;19.00;99.90;;;;;;5012521;28;20171;-81
2023/08/19 02:10:28;;;;;;;4.07;2.92;;;19.00;99.90;;;;;;5010865;28;20174;-81
2023/08/19 02:12:53;;;;;;;4.15;3.30;;;18.90;99.90;;;;;;5012868;28;20167;-82
2023/08/19 02:15:19;;;;;;;4.82;2.75;;;18.80;99.90;;;;;;5011070;28;20203;-82
2023/08/19 02:17:44;;;;;;;4.47;3.15;;;18.60;99.90;;;;;;5012845;28;20183;-82
2023/08/19 02:20:10;;;;;;;3.70;2.95;;;18.60;99.90;;;;;;5010567;28;20228;-82
2023/08/19 02:22:38;;;;;;;3.53;2.90;;;18.60;99.90;;;;;;5012478;28;20300;-82
2023/08/19 02:25:04;;;;;;;3.10;2.85;;;18.60;99.90;;;;;;5012825;28;20183;-81
2023/08/19 02:27:31;;;;;;;3.08;2.70;;;18.70;99.90;;;;;;5011213;28;20179;-81
2023/08/19 02:29:57;;;;;;;4.68;2.97;;;18.60;99.90;;;;;;5011793;28;20691;-81
2023/08/19 02:32:22;;;;;;;3.85;3.03;;;18.60;99.90;;;;;;5012209;28;20420;-82
2023/08/19 02:34:48;;;;;;;3.90;3.08;;;18.60;99.90;;;;;;5012259;28;20209;-82
2023/08/19 02:37:14;;;;;;;3.83;3.00;;;18.70;99.90;;;;;;5011799;28;20206;-82
2023/08/19 02:39:40;;;;;;;4.07;3.22;;;18.80;99.90;;;;;;5011130;28;20195;-82
2023/08/19 02:42:06;;;;;;;4.05;2.80;;;18.80;99.90;;;;;;5012048;28;20223;-82
2023/08/19 02:44:31;;;;;;;3.58;3.03;;;18.70;99.90;;;;;;5011921;28;20171;-82
2023/08/19 02:46:57;;;;;;;3.45;2.67;;;18.70;99.90;;;;;;5010540;28;20224;-82
2023/08/19 02:49:22;;;;;;;5.20;3.30;;;18.60;99.90;;;;;;5010736;28;20229;-82
2023/08/19 02:51:48;;;;;;;5.00;2.90;;;18.60;99.90;;;;;;5010105;28;20167;-82
2023/08/19 02:54:13;;;;;;;3.67;3.00;;;18.60;99.90;;;;;;5010339;28;20579;-82
2023/08/19 02:56:39;;;;;;;3.65;3.22;;;18.50;99.90;;;;;;5011043;28;20266;-82
2023/08/19 02:59:05;;;;;;;4.05;2.97;;;18.50;99.90;;;;;;5012056;28;20218;-82
2023/08/19 03:01:30;;;;;;;4.43;3.42;;;18.70;99.90;;;;;;5010035;28;20174;-82
2023/08/19 03:03:56;;;;;;;3.15;2.85;;;18.70;99.90;;;;;;5010431;28;20178;-82
2023/08/19 03:06:21;;;;;;;3.35;3.05;;;18.70;99.90;;;;;;5010529;28;20187;-81
2023/08/19 03:08:47;;;;;;;3.30;3.00;;;18.80;99.90;;;;;;5010690;28;20195;-81
2023/08/19 03:11:12;;;;;;;3.40;3.10;;;18.80;99.90;;;;;;5011762;28;20195;-82
2023/08/19 03:13:38;;;;;;;4.32;3.10;;;18.70;99.90;;;;;;5011546;28;20234;-82
2023/08/19 03:16:05;;;;;;;4.72;3.35;;;18.60;99.90;;;;;;5011506;28;20175;-82
2023/08/19 03:18:31;;;;;;;6.47;3.50;;;18.60;99.90;;;;;;5015455;28;20205;-82
2023/08/19 03:20:57;;;;;;;4.80;3.08;;;18.60;99.90;;;;;;5015049;28;20179;-81
2023/08/19 03:23:25;;;;;;;4.00;2.95;;;18.60;99.90;;;;;;5015471;28;20195;-82
2023/08/19 03:25:51;;;;;;;3.10;2.80;;;18.60;99.90;;;;;;5014075;28;20555;-82
2023/08/19 03:28:17;;;;;;;4.80;3.20;;;18.60;99.90;;;;;;5013852;28;20174;-82
2023/08/19 03:30:42;;;;;;;4.50;2.83;;;18.60;99.90;;;;;;5014381;28;20171;-82
2023/08/19 03:33:08;;;;;;;3.58;3.00;;;18.50;99.90;;;;;;5014234;28;20263;-82
2023/08/19 03:35:34;;;;;;;6.15;3.42;;;18.50;99.90;;;;;;5014880;28;20171;-82
2023/08/19 03:38:00;;;;;;;3.40;3.10;;;18.50;99.90;;;;;;5015097;28;20175;-80
2023/08/19 03:40:26;;;;;;;4.38;3.40;;;18.50;99.90;;;;;;5013570;28;20224;-81
2023/08/19 03:42:51;;;;;;;3.90;3.05;;;18.50;99.90;;;;;;5014943;28;20197;-82
2023/08/19 03:45:17;;;;;;;4.53;3.20;;;18.50;99.90;;;;;;5013931;28;20692;-82
2023/08/19 03:47:42;;;;;;;4.88;3.10;;;18.40;99.90;;;;;;5013895;28;20181;-82
2023/08/19 03:50:08;;;;;;;5.50;3.30;;;18.40;99.90;;;;;;5014607;28;20732;-82
2023/08/19 03:52:34;;;;;;;4.15;3.40;;;18.50;99.90;;;;;;5013900;28;20190;-82
2023/08/19 03:54:59;;;;;;;3.65;3.35;;;18.40;99.90;;;;;;5013728;28;20207;-82
2023/08/19 03:57:25;;;;;;;4.90;3.25;;;18.40;99.90;;;;;;5015385;28;20175;-82
2023/08/19 03:59:51;;;;;;;7.75;3.35;;;18.20;99.90;;;;;;5014886;28;20207;-82
2023/08/19 04:02:17;;;;;;;4.43;3.10;;;18.20;99.90;;;;;;5014291;28;20281;-82
2023/08/19 04:05:03;;;;;;;5.40;3.30;;;18.10;99.90;;;;;;5015877;28;20645;-81
2023/08/19 04:07:29;;;;;;;4.63;2.80;;;18.10;99.90;;;;;;5014167;28;20175;-82
2023/08/19 04:09:55;;;;;;;3.00;2.80;;;18.00;99.90;;;;;;5012853;28;20210;-82
2023/08/19 04:12:21;;;;;;;4.90;3.30;;;18.00;99.90;;;;;;5014044;28;20179;-82
2023/08/19 04:14:47;;;;;;;2.80;2.60;;;18.10;99.90;;;;;;4995781;28;20203;-82
2023/08/19 04:17:13;;;;;;;6.67;3.30;;;18.10;99.90;;;;;;5013896;28;20175;-82
2023/08/19 04:19:38;;;;;;;5.60;3.42;;;18.20;99.90;;;;;;5012707;28;20187;-81
2023/08/19 04:22:04;;;;;;;3.73;3.40;;;18.30;99.90;;;;;;4995888;28;20270;-82
2023/08/19 04:24:29;;;;;;;3.78;3.22;;;18.30;99.90;;;;;;4995806;28;20596;-82
2023/08/19 04:26:55;;;;;;;4.05;3.28;;;18.20;99.90;;;;;;4995280;28;20190;-82
2023/08/19 04:29:20;;;;;;;3.55;3.25;;;18.20;99.90;;;;;;4994703;28;20225;-82
2023/08/19 04:31:46;;;;;;;3.70;3.10;;;18.20;99.90;;;;;;4995185;28;20182;-82
2023/08/19 04:34:12;;;;;;;5.78;3.10;;;18.30;99.90;;;;;;5012967;28;20206;-82
2023/08/19 04:36:37;;;;;;;3.42;3.13;;;18.30;99.90;;;;;;4995076;28;20175;-82
2023/08/19 04:39:07;;;;;;;6.80;3.13;;;18.20;99.90;;;;;;5012865;28;20203;-82
2023/08/19 04:41:33;;;;;;;3.70;3.33;;;18.10;99.90;;;;;;5012692;28;20190;-81
2023/08/19 04:43:58;;;;;;;3.95;3.28;;;18.10;99.90;;;;;;5012883;28;20179;-82
2023/08/19 04:46:24;;;;;;;5.13;3.78;;;18.00;99.90;;;;;;5012926;28;20191;-82
2023/08/19 04:48:49;;;;;;;3.95;3.53;;;18.10;99.90;;;;;;5012544;28;20206;-82
2023/08/19 04:51:15;;;;;;;5.40;3.30;;;18.10;99.90;;;;;;4994669;28;20179;-83
2023/08/19 04:53:41;;;;;;;4.13;3.15;;;18.10;99.90;;;;;;4993877;28;20220;-83
2023/08/19 04:56:06;;;;;;;4.97;3.70;;;18.10;99.90;;;;;;5012377;28;20254;-83
2023/08/19 04:58:32;;;;;;;3.40;3.10;;;18.20;99.90;;;;;;5012190;28;20214;-83
2023/08/19 05:00:57;;;;;;;3.85;2.80;;;18.20;99.90;;;;;;5010061;28;20176;-83
2023/08/19 05:03:23;;;;;;;3.10;2.60;;;18.20;99.90;;;;;;5010678;28;20171;-84
2023/08/19 05:05:50;;;;;;;3.50;3.20;;;18.10;99.90;;;;;;5012409;28;20176;-84
2023/08/19 05:08:15;;;;;;;3.70;3.25;;;18.00;99.90;;;;;;5012647;28;20167;-83
2023/08/19 05:10:41;;;;;;;3.53;3.17;;;18.00;99.90;;;;;;5010959;28;20220;-82
2023/08/19 05:13:07;;;;;;;4.45;3.35;;;18.00;99.90;;;;;;5011318;28;20180;-80
2023/08/19 05:15:32;;;;;;;5.38;3.45;;;18.10;99.90;;;;;;5014042;28;20198;-81
2023/08/19 05:17:58;;;;;;;5.80;3.40;;;18.30;99.90;;;;;;5011280;28;20256;-78
2023/08/19 05:20:23;;;;;;;8.45;3.70;;;18.30;99.90;;;;;;5006613;28;20207;-80
2023/08/19 05:22:49;;;;;;;5.25;3.20;;;18.60;99.90;;;;;;5010004;28;20182;-81
2023/08/19 05:25:15;;;;;;;4.95;3.33;;;18.80;99.90;;;;;;4995795;28;20190;-81
2023/08/19 05:27:40;;;;;;;3.90;3.60;;;18.80;99.90;;;;;;5011395;28;20594;-80
2023/08/19 05:30:09;;;;;;;3.30;2.80;;;19.00;99.90;;;;;;4993024;28;20199;-84
2023/08/19 05:32:35;;;;;;;6.32;3.25;;;19.40;99.90;;;;;;4994000;28;20274;-84
2023/08/19 05:35:01;;;;;;;4.28;3.20;;;20.20;99.90;;;;;;4994080;28;20295;-84
2023/08/19 05:37:26;;;;;;;3.60;3.22;;;20.60;99.90;;;;;;5011671;28;20167;-83
2023/08/19 05:39:52;;;;;;;3.35;2.83;;;20.90;99.90;;;;;;4994232;28;20195;-83
2023/08/19 05:42:18;;;;;;;5.40;3.50;;;21.10;99.90;;;;;;5012457;28;20201;-83
2023/08/19 05:44:43;;;;;;;5.03;3.40;;;21.20;99.90;;;;;;5012589;28;20171;-82
2023/08/19 05:47:09;;;;;;;4.80;3.13;;;21.50;99.90;;;;;;5013103;28;20193;-82
2023/08/19 05:49:35;;;;;;;3.53;3.15;;;21.50;99.90;;;;;;5018374;28;20202;-84
2023/08/19 05:52:01;;;;;;;3.30;3.00;;;21.80;99.90;;;;;;5000982;28;20179;-80
2023/08/19 05:54:27;;;;;;;4.22;3.60;;;21.80;59.10;;;;;;5022640;28;20195;-80
2023/08/19 05:56:52;;;;;;;7.05;3.50;;;21.80;9.20;;;;;;5006095;28;20238;-80
2023/08/19 05:59:18;;;;;;;5.45;3.53;;;21.90;1.00;;;;;;5024530;28;20207;-81
2023/08/19 06:01:44;;;;;;;4.03;3.63;;;21.90;1.00;;;;;;5006834;28;20266;-80
2023/08/19 06:04:09;;;;;;;4.03;3.55;;;22.00;1.00;;;;;;5007189;28;20198;-80
2023/08/19 06:06:35;;;;;;;3.88;3.40;;;22.00;1.00;;;;;;5007641;28;20179;-81
2023/08/19 06:09:00;;;;;;;4.43;3.60;;;22.10;1.00;;;;;;5008543;28;20203;-81
2023/08/19 06:11:26;;;;;;;4.65;3.90;;;22.20;1.00;;;;;;5007977;28;20174;-81
2023/08/19 06:13:52;;;;;;;3.67;3.38;;;22.20;1.00;;;;;;5009280;28;20209;-80
2023/08/19 06:16:18;;;;;;;3.63;3.33;;;22.10;1.00;;;;;;5022850;28;20566;-81
2023/08/19 06:18:44;;;;;;;3.88;3.58;;;22.10;38.50;;;;;;5007139;28;20206;-81
2023/08/19 06:21:11;;;;;;;5.70;3.33;;;22.00;97.90;;;;;;5007328;28;20171;-83
2023/08/19 06:23:38;;;;;;;4.53;4.13;;;22.10;99.90;;;;;;5024417;28;20197;-82
2023/08/19 06:26:03;;;;;;;4.18;3.78;;;22.00;99.90;;;;;;5024878;28;20178;-82
2023/08/19 06:28:29;;;;;;;3.90;3.55;;;21.90;99.90;;;;;;5006147;28;20203;-82
2023/08/19 06:30:56;;;;;;;5.35;3.78;;;22.10;99.90;;;;;;5006696;28;20175;-83
2023/08/19 06:33:22;;;;;;;4.75;4.30;;;22.10;99.90;;;;;;5014542;28;20167;-83
2023/08/19 06:35:49;;;;;;;5.50;4.50;;;22.10;99.90;;;;;;4994995;28;20174;-83
2023/08/19 06:38:18;;;;;;;5.13;4.55;;;22.10;99.90;;;;;;4994995;28;20172;-82
2023/08/19 06:40:57;;;;;;;4.43;4.03;;;22.10;99.90;;;;;;4994407;28;20173;-82
2023/08/19 06:43:26;;;;;;;4.90;4.20;;;22.20;99.90;;;;;;4994782;28;20163;-82
2023/08/19 06:45:54;;;;;;;6.93;5.00;;;22.40;99.90;;;;;;5013281;28;20264;-82
2023/08/19 06:48:22;;;;;;;6.13;5.30;;;22.30;99.90;;;;;;4995059;28;20187;-82
2023/08/19 06:50:47;;;;;;;6.53;5.05;;;22.20;99.90;;;;;;5011480;28;20176;-83
2023/08/19 06:53:13;;;;;;;4.18;3.72;;;22.20;99.90;;;;;;5012801;28;20175;-82
2023/08/19 06:55:50;;;;;;;6.82;4.78;;;22.20;99.90;;;;;;4995998;28;20178;-85
2023/08/19 06:58:26;;;;;;;5.43;4.07;;;22.40;99.90;;;;;;5012199;28;20236;-81
2023/08/19 07:00:59;;;;;;;5.47;4.03;;;22.60;99.90;;;;;;4994470;28;20167;-82
2023/08/19 07:03:36;;;;;;;5.07;4.10;;;22.90;99.90;;;;;;5012563;28;20170;-84
2023/08/19 07:06:03;;;;;;;4.90;4.40;;;23.00;99.90;;;;;;5013731;28;20174;-81
2023/08/19 07:08:30;;;;;;;4.60;4.20;;;23.10;99.90;;;;;;4996638;28;20217;-83
2023/08/19 07:10:59;;;;;;;4.82;3.90;;;23.20;99.90;;;;;;5012883;28;20175;-83
2023/08/19 07:13:24;;;;;;;4.40;4.00;;;23.20;99.90;;;;;;4995232;28;20182;-82
2023/08/19 07:15:58;;;;;;;4.88;4.28;;;23.30;99.90;;;;;;5010952;28;20175;-84
2023/08/19 07:18:26;;;;;;;4.80;4.25;;;23.40;99.90;;;;;;4992564;28;20199;-83
2023/08/19 07:20:54;;;;;;;4.82;4.32;;;23.50;99.90;;;;;;4992895;28;20235;-84
2023/08/19 07:23:23;;;;;;;4.70;4.30;;;23.40;99.90;;;;;;5010328;28;20176;-83
2023/08/19 07:25:50;;;;;;;5.25;4.60;;;23.40;99.90;;;;;;4993334;28;20675;-84
2023/08/19 07:28:17;;;;;;;5.80;4.38;;;23.40;99.90;;;;;;4992619;28;20171;-82
2023/08/19 07:30:43;;;;;;;6.20;4.10;;;23.40;99.90;;;;;;5009803;28;20243;-84
2023/08/19 07:33:11;;;;;;;5.25;3.97;;;23.40;99.90;;;;;;4992344;28;20168;-84
2023/08/19 07:35:37;;;;;;;4.88;4.30;;;23.40;99.90;;;;;;4992210;28;20195;-84
2023/08/19 07:38:02;;;;;;;4.80;4.40;;;23.40;99.90;;;;;;4992187;28;20168;-85
2023/08/19 07:40:28;;;;;;;6.03;4.65;;;23.40;99.90;;;;;;5009228;28;20177;-86
2023/08/19 07:42:53;;;;;;;4.95;4.32;;;23.50;99.90;;;;;;4994445;28;20179;-82
2023/08/19 07:45:19;;;;;;;6.72;4.47;;;23.60;99.90;;;;;;4998442;28;20182;-82
2023/08/19 07:47:45;;;;;;;4.38;3.97;;;23.70;99.90;;;;;;4997292;28;20179;-82
2023/08/19 07:50:10;;;;;;;4.75;4.35;;;23.70;90.80;;;;;;5013966;28;20195;-81
2023/08/19 07:52:36;;;;;;;6.47;3.90;;;23.80;7.60;;;;;;5012811;28;20180;-81
2023/08/19 07:55:01;;;;;;;5.75;3.80;;;23.90;34.10;;;;;;5000587;28;20271;-81
2023/08/19 07:57:27;;;;;;;4.47;4.07;;;24.10;1.00;;;;;;5002041;28;20178;-82
2023/08/19 07:59:53;;;;;;;4.70;4.15;;;24.20;1.00;;;;;;5012965;28;20275;-80
2023/08/19 08:02:18;;;;;;;4.70;4.30;;;24.30;99.90;;;;;;5013428;28;20533;-81
2023/08/19 08:04:44;;;;;;;6.38;4.20;;;24.50;99.90;;;;;;5017332;28;20273;-81
2023/08/19 08:07:10;;;;;;;4.47;4.00;;;24.60;89.20;;;;;;5017607;28;20212;-81
2023/08/19 08:09:37;;;;;;;4.10;3.80;;;24.80;1.00;;;;;;5017264;28;20198;-78
2023/08/19 08:12:03;;;;;;;5.70;3.70;;;24.90;1.00;;;;;;5018591;28;20179;-81
2023/08/19 08:14:28;;;;;;;3.72;3.40;;;25.00;1.00;;;;;;5039877;28;20190;-82
2023/08/19 08:16:56;;;;;;;4.07;3.67;;;25.10;95.90;;;;;;5035771;28;20591;-81
2023/08/19 08:19:25;;;;;;;4.07;3.60;;;25.30;99.90;;;;;;5017994;28;20190;-80
2023/08/19 08:21:53;;;;;;;3.83;3.40;;;25.40;99.90;;;;;;5035031;28;20178;-80
2023/08/19 08:24:19;;;;;;;4.53;3.53;;;25.60;99.90;;;;;;5020300;28;20294;-81
2023/08/19 08:26:45;;;;;;;5.47;3.40;;;25.80;99.90;;;;;;5020493;28;20184;-81
2023/08/19 08:29:11;;;;;;;4.05;3.40;;;26.00;99.90;;;;;;5037856;28;20273;-84
2023/08/19 08:31:36;;;;;;;4.30;3.38;;;26.00;99.90;;;;;;5034210;28;20180;-79
2023/08/19 08:34:02;;;;;;;3.83;3.40;;;26.10;1.00;;;;;;5033837;28;20209;-80
2023/08/19 08:36:27;;;;;;;4.60;3.38;;;26.30;48.20;;;;;;5033448;28;20166;-79
2023/08/19 08:38:53;;;;;;;3.90;3.60;;;26.50;99.90;;;;;;5015910;28;20187;-81
2023/08/19 08:41:19;;;;;;;3.72;3.42;;;26.70;1.00;;;;;;5018097;28;20167;-79
2023/08/19 08:43:47;;;;;;;3.55;3.25;;;26.80;77.30;;;;;;5032050;28;20261;-79
2023/08/19 08:46:15;;;;;;;4.68;3.50;;;27.00;1.00;;;;;;5031917;28;20671;-79
2023/08/19 08:48:42;;;;;;;4.65;3.28;;;27.20;99.90;;;;;;5031883;28;20205;-78
2023/08/19 08:51:09;;;;;;;4.82;3.40;;;27.30;99.90;;;;;;5032792;28;20182;-79
2023/08/19 08:53:35;;;;;;;3.70;3.30;;;27.50;1.00;;;;;;5014494;28;20174;-80
2023/08/19 08:56:02;;;;;;;3.78;3.33;;;27.60;99.90;;;;;;5017817;28;20178;-79
2023/08/19 08:58:28;;;;;;;3.40;3.10;;;27.80;8.90;;;;;;5014275;28;20239;-79
2023/08/19 09:00:54;;;;;;;3.67;3.22;;;27.90;1.00;;;;;;5014041;28;20170;-79
2023/08/19 09:03:25;;;;;;;3.92;3.17;;;28.00;1.00;;;;;;5032981;28;20174;-80
2023/08/19 09:05:55;;;;;;;5.65;3.00;;;28.20;1.00;;;;;;5019588;28;20174;-80
2023/08/19 09:08:30;;;;;;;4.28;3.40;;;28.20;1.00;;;;;;5033433;28;20278;-80
2023/08/19 09:10:57;;;;;;;3.90;3.30;;;28.40;1.00;;;;;;5015313;28;20177;-80
2023/08/19 09:13:24;;;;;;;3.45;3.10;;;28.50;99.90;;;;;;5016065;28;20533;-81
2023/08/19 09:15:50;;;;;;;3.00;2.80;;;28.70;99.90;;;;;;5034046;28;20174;-80
2023/08/19 09:18:18;;;;;;;6.15;3.00;;;28.80;51.40;;;;;;5035727;28;20166;-79
2023/08/19 09:20:44;;;;;;;5.30;2.90;;;29.00;1.00;;;;;;5035607;28;20187;-80
2023/08/19 09:23:10;;;;;;;3.20;2.90;;;29.10;1.00;;;;;;5034914;28;20171;-80
2023/08/19 09:25:39;;;;;;;6.03;2.60;;;29.30;1.00;;;;;;5034862;28;20179;-80
2023/08/19 09:28:05;;;;;;;5.40;2.75;;;29.40;65.50;;;;;;5035848;28;20178;-81
2023/08/19 09:30:34;;;;;;;6.95;2.58;;;29.60;99.90;;;;;;5036263;28;20206;-80
2023/08/19 09:33:00;;;;;;;6.45;2.85;;;29.70;1.00;;;;;;5016886;28;20170;-80
2023/08/19 09:35:37;;;;;;;3.35;2.45;;;29.80;2.50;;;;;;5035973;28;20220;-82
2023/08/19 09:38:03;;;;;;;4.22;2.50;;;30.00;99.90;;;;;;5020918;28;20204;-82
2023/08/19 09:40:28;;;;;;;5.00;2.85;;;30.00;1.00;;;;;;5037207;28;20177;-82
2023/08/19 09:42:58;;;;;;;4.10;2.72;;;30.10;99.90;;;;;;5021227;28;20174;-82
2023/08/19 09:45:26;;;;;;;3.28;2.63;;;30.20;99.90;;;;;;5021724;28;20308;-81
2023/08/19 09:47:53;;;;;;;5.63;2.53;;;30.20;99.90;;;;;;5021545;28;20184;-82
2023/08/19 09:50:23;;;;;;;3.92;2.33;;;30.40;99.90;;;;;;5019200;28;20203;-81
2023/08/19 09:52:59;;;;;;;8.75;2.65;;;30.40;99.90;;;;;;5017860;28;20179;-82
2023/08/19 09:55:27;;;;;;;3.15;2.30;;;30.60;1.00;;;;;;5021554;28;20204;-83
2023/08/19 09:57:53;;;;;;;6.15;2.50;;;30.70;1.00;;;;;;5039304;28;20167;-83
2023/08/19 10:00:20;;;;;;;5.15;2.70;;;30.70;37.00;;;;;;5020753;28;20711;-82
2023/08/19 10:02:45;;;;;;;10.32;2.97;;;30.80;99.90;;;;;;5024078;28;20175;-83
2023/08/19 10:05:11;;;;;;;9.93;2.58;;;30.90;1.00;;;;;;5041418;28;20181;-84
2023/08/19 10:07:40;;;;;;;5.22;2.30;;;31.00;1.00;;;;;;5045266;28;20162;-82
2023/08/19 10:10:11;;;;;;;2.88;2.38;;;31.20;99.90;;;;;;5026423;28;20190;-82
2023/08/19 10:12:40;;;;;;;8.50;3.00;;;31.10;79.90;;;;;;5027194;28;20265;-82
2023/08/19 10:15:11;;;;;;;9.52;2.90;;;31.20;6.60;;;;;;5025382;28;20218;-84
2023/08/19 10:17:40;;;;;;;5.10;2.45;;;31.30;1.00;;;;;;5026314;28;20191;-82
2023/08/19 10:20:11;;;;;;;6.15;2.38;;;31.40;1.00;;;;;;5045929;28;20220;-83
2023/08/19 10:22:41;;;;;;;9.05;2.47;;;31.30;1.00;;;;;;5028136;28;20192;-82
2023/08/19 10:25:09;;;;;;;2.92;2.17;;;31.30;1.00;;;;;;5025487;28;20186;-83
2023/08/19 10:27:35;;;;;;;4.90;2.33;;;31.30;1.00;;;;;;5046365;28;20174;-82
2023/08/19 10:30:33;;;;;;;4.72;2.22;;;31.50;1.00;;;;;;5042842;28;20212;-82
2023/08/19 10:33:32;;;;;;;4.28;2.33;;;31.60;1.00;;;;;;5027433;28;20178;-83
2023/08/19 10:36:05;;;;;;;4.25;2.50;;;31.70;1.00;;;;;;5045310;28;20270;-82
2023/08/19 10:38:44;;;;;;;2.83;2.22;;;31.80;28.30;;;;;;5027971;28;20186;-83
2023/08/19 10:41:29;;;;;;;4.35;2.20;;;31.90;1.00;;;;;;5045557;28;20175;-82
2023/08/19 10:43:59;;;;;;;6.90;2.47;;;32.10;1.00;;;;;;5046614;28;20174;-84
2023/08/19 10:46:36;;;;;;;3.20;2.33;;;32.30;1.00;;;;;;5046781;28;20222;-82
2023/08/19 10:49:03;;;;;;;4.40;2.38;;;32.40;1.00;;;;;;5047239;28;20190;-83
2023/08/19 10:52:00;;;;;;;5.78;2.58;;;32.40;1.00;;;;;;5047672;28;20182;-82
2023/08/19 10:54:42;;;;;;;4.93;2.33;;;32.40;1.00;;;;;;5045550;28;20309;-83
2023/08/19 10:57:25;;;;;;;4.53;2.50;;;32.30;99.90;;;;;;5045950;28;20171;-82
2023/08/19 11:00:05;;;;;;;3.70;2.45;;;32.20;99.90;;;;;;5120410;23;20234;-83
2023/08/19 11:02:31;;;;;;;5.35;2.58;;;32.40;1.00;;;;;;5098020;28;20198;-83
2023/08/19 11:04:58;;;;;;;3.55;2.55;;;32.60;1.00;;;;;;5097568;28;20228;-85
2023/08/19 11:07:25;;;;;;;6.13;2.42;;;32.60;1.00;;;;;;5117852;28;20164;-84
2023/08/19 11:09:56;;;;;;;3.90;2.33;;;32.40;99.90;;;;;;5116364;28;20198;-84
2023/08/19 11:12:23;;;;;;;3.13;2.30;;;32.60;99.90;;;;;;5097645;28;20170;-85
2023/08/19 11:14:51;;;;;;;4.40;2.30;;;32.80;99.90;;;;;;5096252;28;20237;-83
2023/08/19 11:17:19;;;;;;;4.85;2.22;;;32.80;99.90;;;;;;5097501;28;20275;-82
2023/08/19 11:19:46;;;;;;;5.93;2.35;;;32.60;99.90;;;;;;5096510;28;20194;-84
2023/08/19 11:22:15;;;;;;;3.40;2.35;;;32.70;99.90;;;;;;5098957;28;20224;-83
2023/08/19 11:24:41;;;;;;;3.83;2.40;;;32.60;99.90;;;;;;5115795;28;20179;-83
2023/08/19 11:27:07;;;;;;;3.03;2.35;;;32.70;1.00;;;;;;5098202;28;20172;-83
2023/08/19 11:29:36;;;;;;;3.78;2.25;;;32.80;1.00;;;;;;5117190;28;20191;-82
2023/08/19 11:32:02;;;;;;;3.08;2.45;;;32.90;99.90;;;;;;5098644;28;20198;-83
2023/08/19 11:34:29;;;;;;;4.63;2.45;;;33.10;99.90;;;;;;5097390;28;20584;-83
2023/08/19 11:36:54;;;;;;;6.28;2.42;;;33.30;99.90;;;;;;5097624;28;20168;-83
2023/08/19 11:39:20;;;;;;;4.15;2.38;;;33.70;99.90;;;;;;5118833;28;20198;-82
2023/08/19 11:41:47;;;;;;;3.22;2.42;;;33.80;99.90;;;;;;5099857;28;20171;-83
2023/08/19 11:44:13;;;;;;;4.03;2.42;;;33.80;99.90;;;;;;5101395;28;20182;-86
2023/08/19 11:46:38;;;;;;;4.03;2.30;;;33.60;99.90;;;;;;5100798;28;20171;-83
2023/08/19 11:49:09;;;;;;;3.85;2.35;;;33.70;99.90;;;;;;5100586;28;20183;-84
2023/08/19 11:51:39;;;;;;;7.32;2.67;;;33.70;99.90;;;;;;5100463;28;20175;-83
2023/08/19 11:54:10;;;;;;;3.38;2.50;;;33.50;99.90;;;;;;5101028;28;20252;-84
2023/08/19 11:56:49;;;;;;;6.53;2.78;;;33.50;99.90;;;;;;5119895;28;20175;-85
2023/08/19 11:59:14;;;;;;;5.40;2.38;;;33.60;99.90;;;;;;5119198;28;20194;-83
2023/08/19 12:01:40;;;;;;;4.38;2.45;;;33.80;99.90;;;;;;5118369;28;20164;-83
2023/08/19 12:04:11;;;;;;;4.05;2.25;;;33.70;99.90;;;;;;5119000;28;20176;-83
2023/08/19 12:06:37;;;;;;;4.05;2.60;;;33.60;99.90;;;;;;5099099;28;20646;-83
2023/08/19 12:09:04;;;;;;;3.92;2.58;;;33.40;99.90;;;;;;5118031;28;20172;-83
2023/08/19 12:11:30;;;;;;;5.38;2.65;;;33.40;99.90;;;;;;5100121;28;20225;-85
2023/08/19 12:13:56;;;;;;;5.05;2.55;;;33.60;99.90;;;;;;5100326;28;20199;-83
2023/08/19 12:16:22;;;;;;;4.03;2.90;;;33.30;99.90;;;;;;5099774;28;20258;-83
2023/08/19 12:18:47;;;;;;;3.75;2.50;;;33.30;99.90;;;;;;5100950;28;20317;-83
2023/08/19 12:21:13;;;;;;;3.10;2.70;;;33.40;99.90;;;;;;5118193;28;20183;-83
2023/08/19 12:23:39;;;;;;;3.03;2.47;;;33.50;99.90;;;;;;5119326;28;20213;-84
2023/08/19 12:26:04;;;;;;;4.68;2.83;;;33.40;99.90;;;;;;5119328;28;20198;-84
2023/08/19 12:28:30;;;;;;;4.47;2.65;;;33.30;99.90;;;;;;5101009;28;20221;-83
2023/08/19 12:30:56;;;;;;;3.78;2.45;;;33.00;1.00;;;;;;5100144;28;20192;-83
2023/08/19 12:33:21;;;;;;;5.32;2.50;;;32.90;1.00;;;;;;5100076;28;20634;-83
2023/08/19 12:35:49;;;;;;;4.70;2.78;;;32.90;1.00;;;;;;5118188;28;20206;-82
2023/08/19 12:38:16;;;;;;;4.38;2.88;;;32.90;1.00;;;;;;5098571;28;20179;-83
2023/08/19 12:40:46;;;;;;;3.95;2.50;;;32.90;1.00;;;;;;5115965;28;20207;-84
2023/08/19 12:43:12;;;;;;;3.90;2.78;;;32.80;1.00;;;;;;5101309;28;20175;-84
2023/08/19 12:45:39;;;;;;;3.30;2.65;;;32.70;1.00;;;;;;5108280;28;20172;-84
2023/08/19 12:48:06;;;;;;;4.30;2.85;;;32.60;1.00;;;;;;5099037;28;20235;-82
2023/08/19 12:50:32;;;;;;;3.25;2.90;;;32.50;1.00;;;;;;5098306;28;20195;-84